Time;durP1;ratioP1;P1;durP2;ratioP2;P2;SDS_P1;SDS_P2;PMS_P1;PMS_P2;Temp;Humidity;BMP_temperature;BMP_pressure;BME280_temperature;BME280_humidity;BME280_pressure;Samples;Min_cycle;Max_cycle;Signal;HPM_P1;HPM_P2
2022/11/26 00:01:46;;;;;;;83.45;32.45;;;;;;;2.96;87.18;101509.42;1675771;85;21528;-77
2022/11/26 00:04:30;;;;;;;85.28;31.87;;;;;;;2.95;87.13;101509.38;1663689;84;21458;-77
2022/11/26 00:07:21;;;;;;;92.20;33.08;;;;;;;2.94;87.18;101503.41;1680244;85;20927;-78
2022/11/26 00:10:17;;;;;;;97.78;32.83;;;;;;;2.91;87.12;101499.48;1671471;85;21038;-78
2022/11/26 00:13:02;;;;;;;92.75;32.23;;;;;;;2.92;87.19;101501.22;1658629;85;21435;-77
2022/11/26 00:15:52;;;;;;;96.55;34.05;;;;;;;2.95;87.26;101515.36;1662929;84;20942;-78
2022/11/26 00:18:34;;;;;;;97.00;33.83;;;;;;;2.96;87.25;101509.84;1661689;83;21014;-77
2022/11/26 00:21:25;;;;;;;97.53;33.98;;;;;;;2.92;87.13;101504.19;1677127;85;21467;-77
2022/11/26 00:24:27;;;;;;;96.67;34.05;;;;;;;2.86;87.07;101506.14;1675421;85;20982;-77
2022/11/26 00:27:12;;;;;;;105.70;32.42;;;;;;;2.84;87.13;101506.92;1667864;85;20946;-77
2022/11/26 00:29:57;;;;;;;103.97;35.52;;;;;;;2.86;87.24;101512.94;1661192;84;20949;-78
2022/11/26 00:32:42;;;;;;;95.92;33.38;;;;;;;2.88;87.33;101515.13;1689919;83;21494;-77
2022/11/26 00:35:27;;;;;;;101.35;33.78;;;;;;;2.91;87.31;101522.47;1679191;84;21014;-77
2022/11/26 00:38:29;;;;;;;89.71;33.18;;;;;;;2.91;87.29;101533.97;1264526;83;10025614;-77
2022/11/26 00:41:21;;;;;;;101.53;33.42;;;;;;;2.91;87.25;101528.86;1639589;86;20983;-77
2022/11/26 00:44:22;;;;;;;103.47;34.03;;;;;;;2.90;87.26;101538.63;1643382;85;20980;-77
2022/11/26 00:47:09;;;;;;;104.63;35.65;;;;;;;2.92;87.34;101533.55;1650786;86;20995;-78
2022/11/26 00:49:54;;;;;;;102.85;33.28;;;;;;;2.91;87.29;101536.93;1643738;84;22054;-77
2022/11/26 00:52:39;;;;;;;96.10;32.80;;;;;;;2.92;87.31;101545.92;1650261;86;21426;-77
2022/11/26 00:55:37;;;;;;;101.27;34.78;;;;;;;2.94;87.35;101543.41;1651425;85;20947;-78
2022/11/26 00:58:26;;;;;;;103.67;34.60;;;;;;;2.94;87.34;101545.97;1651862;84;20971;-77
2022/11/26 01:01:15;;;;;;;107.35;35.73;;;;;;;2.94;87.34;101543.41;1659652;84;20924;-78
2022/11/26 01:04:00;;;;;;;95.75;35.03;;;;;;;2.96;87.37;101544.33;1655027;84;20988;-77
2022/11/26 01:06:45;;;;;;;107.03;36.60;;;;;;;2.96;87.35;101543.05;1659573;84;21033;-77
2022/11/26 01:09:30;;;;;;;98.65;35.58;;;;;;;2.94;87.31;101543.41;1656745;85;21047;-77
2022/11/26 01:12:15;;;;;;;96.97;35.15;;;;;;;2.95;87.43;101542.18;1657462;84;20979;-77
2022/11/26 01:15:00;;;;;;;102.10;33.38;;;;;;;2.97;87.43;101547.33;1655699;84;21388;-78
2022/11/26 01:17:46;;;;;;;100.15;34.65;;;;;;;2.98;87.42;101545.23;1663213;84;20924;-77
2022/11/26 01:20:31;;;;;;;106.90;34.92;;;;;;;2.98;87.37;101545.23;1658250;84;20963;-77
2022/11/26 01:23:18;;;;;;;101.05;35.03;;;;;;;2.99;87.41;101554.63;1654859;84;21018;-77
2022/11/26 01:26:03;;;;;;;94.55;32.75;;;;;;;2.98;87.35;101558.01;1651283;85;20999;-77
2022/11/26 01:28:48;;;;;;;95.57;33.13;;;;;;;2.98;87.38;101562.70;1640565;85;21447;-77
2022/11/26 01:31:33;;;;;;;98.27;33.78;;;;;;;2.97;87.39;101563.53;1635109;86;20947;-77
2022/11/26 01:34:18;;;;;;;108.47;34.45;;;;;;;2.99;87.40;101569.96;1655882;85;21057;-77
2022/11/26 01:37:06;;;;;;;98.72;35.13;;;;;;;2.98;87.37;101577.17;1637565;84;20923;-78
2022/11/26 01:39:51;;;;;;;108.27;33.25;;;;;;;2.97;87.41;101571.20;1637974;86;20923;-77
2022/11/26 01:42:46;;;;;;;99.67;34.03;;;;;;;2.97;87.43;101567.36;1632823;85;20956;-77
2022/11/26 01:45:31;;;;;;;104.40;33.10;;;;;;;2.96;87.36;101568.59;1647105;84;20955;-77
2022/11/26 01:48:33;;;;;;;103.70;34.83;;;;;;;2.96;87.43;101569.87;1657643;84;21094;-77
2022/11/26 01:51:23;;;;;;;97.67;34.13;;;;;;;2.96;87.46;101570.73;1644310;84;21142;-78
2022/11/26 01:54:12;;;;;;;98.75;35.75;;;;;;;2.95;87.42;101569.00;1643884;85;21118;-77
2022/11/26 01:57:03;;;;;;;104.25;36.33;;;;;;;2.91;87.41;101572.70;1652285;85;21003;-78
2022/11/26 01:59:55;;;;;;;105.00;35.85;;;;;;;2.91;87.48;101573.56;1646467;85;21086;-77
2022/11/26 02:02:40;;;;;;;93.60;34.57;;;;;;;2.90;87.48;101574.38;1637394;84;528508;-77
2022/11/26 02:05:31;;;;;;;95.17;32.48;;;;;;;2.91;87.51;101584.19;1651783;85;21393;-77
2022/11/26 02:08:16;;;;;;;99.55;33.30;;;;;;;2.87;87.44;101582.36;1638426;86;20942;-77
2022/11/26 02:11:17;;;;;;;104.92;33.90;;;;;;;2.83;87.44;101585.64;1643498;85;21556;-77
2022/11/26 02:14:13;;;;;;;96.78;33.10;;;;;;;2.81;87.46;101584.31;1651104;84;355977;-77
2022/11/26 02:17:34;;;;;;;107.20;34.75;;;;;;;2.79;87.47;101585.95;1630464;86;21495;-78
2022/11/26 02:20:47;;;;;;;87.65;32.55;;;;;;;2.77;87.52;101595.66;1593592;88;21030;-77
2022/11/26 02:24:17;;;;;;;94.00;32.00;;;;;;;2.75;87.52;101593.06;1616991;87;21073;-77
2022/11/26 02:27:35;;;;;;;94.42;33.13;;;;;;;2.77;87.61;101601.64;1621731;86;21432;-78
2022/11/26 02:30:20;;;;;;;91.75;31.23;;;;;;;2.77;87.58;101587.59;1609697;86;21573;-78
2022/11/26 02:33:10;;;;;;;94.80;33.25;;;;;;;2.75;87.50;101590.92;1586417;89;21496;-78
2022/11/26 02:36:03;;;;;;;96.28;34.08;;;;;;;2.73;87.54;101593.42;1612968;87;20965;-77
2022/11/26 02:38:48;;;;;;;90.30;33.08;;;;;;;2.72;87.54;101589.55;1609314;87;21536;-77
2022/11/26 02:41:46;;;;;;;97.30;32.67;;;;;;;2.71;87.57;101589.95;1590536;87;20988;-78
2022/11/26 02:44:36;;;;;;;97.17;32.25;;;;;;;2.74;87.63;101587.91;1609130;87;20933;-77
2022/11/26 02:47:24;;;;;;;84.15;30.68;;;;;;;2.76;87.63;101583.30;1611177;87;20926;-78
2022/11/26 02:50:14;;;;;;;78.85;29.10;;;;;;;2.76;87.54;101580.75;1611280;86;21893;-77
2022/11/26 02:53:00;;;;;;;85.90;31.48;;;;;;;2.74;87.49;101576.41;1641742;86;21406;-77
2022/11/26 02:55:50;;;;;;;90.62;32.08;;;;;;;2.72;87.51;101572.95;1639478;86;20901;-77
2022/11/26 02:58:35;;;;;;;90.85;30.48;;;;;;;2.70;87.47;101589.91;1640692;86;20990;-77
2022/11/26 03:01:37;;;;;;;90.28;31.80;;;;;;;2.69;87.50;101586.48;1629234;86;21845;-78
2022/11/26 03:04:31;;;;;;;94.83;33.20;;;;;;;2.70;87.57;101588.22;1642488;86;21528;-77
2022/11/26 03:07:17;;;;;;;93.45;32.78;;;;;;;2.66;87.50;101592.36;1645822;86;21567;-77
2022/11/26 03:10:04;;;;;;;100.02;33.83;;;;;;;2.67;87.63;101590.67;1635236;85;21000;-77
2022/11/26 03:12:49;;;;;;;98.97;33.25;;;;;;;2.67;87.56;101602.16;1637271;85;21358;-77
2022/11/26 03:15:34;;;;;;;106.55;35.23;;;;;;;2.67;87.64;101608.55;1637367;86;21381;-76
2022/11/26 03:18:19;;;;;;;104.67;34.65;;;;;;;2.69;87.64;101611.16;1641924;86;21354;-77
2022/11/26 03:21:04;;;;;;;96.53;36.83;;;;;;;2.69;87.58;101615.84;1628199;86;21552;-77
2022/11/26 03:23:49;;;;;;;106.20;35.00;;;;;;;2.70;87.60;101620.55;1639586;86;20952;-77
2022/11/26 03:26:34;;;;;;;101.33;37.48;;;;;;;2.70;87.59;101629.08;1645570;83;20979;-77
2022/11/26 03:29:19;;;;;;;100.82;34.83;;;;;;;2.72;87.59;101622.73;1644735;86;20916;-77
2022/11/26 03:32:04;;;;;;;111.55;36.55;;;;;;;2.72;87.59;101626.57;1666043;85;20958;-78
2022/11/26 03:34:49;;;;;;;104.65;36.55;;;;;;;2.72;87.56;101630.41;1670391;85;20965;-77
2022/11/26 03:37:34;;;;;;;106.03;35.08;;;;;;;2.71;87.60;101634.64;1669324;85;21487;-77
2022/11/26 03:40:19;;;;;;;112.00;37.25;;;;;;;2.75;87.63;101639.44;1664476;85;21246;-77
2022/11/26 03:43:04;;;;;;;97.75;35.30;;;;;;;2.76;87.62;101636.06;1677289;84;21069;-77
2022/11/26 03:45:49;;;;;;;102.65;34.80;;;;;;;2.76;87.61;101641.17;1639389;86;21114;-77
2022/11/26 03:48:34;;;;;;;105.50;34.18;;;;;;;2.75;87.58;101649.25;1669340;85;21081;-77
2022/11/26 03:51:19;;;;;;;98.92;35.63;;;;;;;2.75;87.57;101645.82;1643080;86;21124;-77
2022/11/26 03:54:04;;;;;;;89.83;32.88;;;;;;;2.75;87.58;101650.52;1647475;85;21116;-77
2022/11/26 03:56:49;;;;;;;93.00;34.08;;;;;;;2.76;87.60;101657.77;1663061;84;21196;-77
2022/11/26 03:59:34;;;;;;;89.30;35.15;;;;;;;2.74;87.47;101655.58;1639060;86;21065;-78
2022/11/26 04:02:19;;;;;;;93.45;34.48;;;;;;;2.72;87.52;101659.77;1647671;86;21462;-77
2022/11/26 04:05:05;;;;;;;89.60;32.78;;;;;;;2.69;87.52;101654.16;1652041;85;21074;-77
2022/11/26 04:07:50;;;;;;;;;;;;;;;2.72;87.59;101662.33;1662402;85;21338;-77
2022/11/26 04:10:35;;;;;;;87.27;31.42;;;;;;;2.73;87.62;101666.20;1650659;85;20316;-77
2022/11/26 04:13:20;;;;;;;93.85;32.90;;;;;;;2.74;87.63;101671.77;1646221;86;21658;-77
2022/11/26 04:16:06;;;;;;;93.87;35.98;;;;;;;2.76;87.64;101676.52;1638458;86;21548;-77
2022/11/26 04:18:52;;;;;;;94.87;33.78;;;;;;;2.77;87.60;101679.53;1647417;86;21133;-78
2022/11/26 04:21:37;;;;;;;102.80;34.20;;;;;;;2.77;87.61;101680.81;1648428;86;21078;-77
2022/11/26 04:24:21;;;;;;;94.87;33.85;;;;;;;2.78;87.57;101685.51;1647375;83;21116;-77
2022/11/26 04:27:07;;;;;;;103.58;34.43;;;;;;;2.77;87.58;101683.77;1648319;85;21588;-78
2022/11/26 04:29:52;;;;;;;101.80;35.13;;;;;;;2.77;87.57;101688.47;1638981;86;21037;-77
2022/11/26 04:32:38;;;;;;;100.10;34.45;;;;;;;2.77;87.58;101696.12;1637026;86;21077;-78
2022/11/26 04:35:24;;;;;;;108.03;34.18;;;;;;;2.77;87.58;101699.96;1640515;86;21050;-77
2022/11/26 04:38:09;;;;;;;103.15;34.75;;;;;;;2.76;87.56;101700.78;1639335;86;21078;-77
2022/11/26 04:40:54;;;;;;;108.45;36.25;;;;;;;2.77;87.59;101705.07;1640954;85;21109;-77
2022/11/26 04:43:39;;;;;;;98.52;34.20;;;;;;;2.75;87.53;101707.11;1638033;86;21149;-77
2022/11/26 04:46:24;;;;;;;105.37;34.78;;;;;;;2.75;87.60;101704.56;1642429;86;21125;-77
2022/11/26 04:49:09;;;;;;;105.70;35.95;;;;;;;2.75;87.55;101709.67;1634500;86;21605;-76
2022/11/26 04:51:54;;;;;;;99.55;33.08;;;;;;;2.71;87.48;101708.70;1638728;86;21069;-76
2022/11/26 04:54:39;;;;;;;101.20;34.57;;;;;;;2.70;87.45;101715.03;1637491;85;21114;-75
2022/11/26 04:57:24;;;;;;;104.27;34.98;;;;;;;2.68;87.55;101719.22;1638911;86;21149;-75
2022/11/26 05:00:12;;;;;;;108.83;38.80;;;;;;;2.68;87.51;101716.66;1639895;86;21062;-75
2022/11/26 05:02:57;;;;;;;117.25;38.13;;;;;;;2.67;87.54;101727.28;1640894;86;21525;-77
2022/11/26 05:05:42;;;;;;;103.93;37.53;;;;;;;2.67;87.55;101732.39;1634979;86;21052;-76
2022/11/26 05:08:27;;;;;;;107.90;34.90;;;;;;;2.69;87.56;101741.38;1638493;85;21041;-76
2022/11/26 05:11:13;;;;;;;110.63;35.03;;;;;;;2.68;87.57;101746.03;1637648;86;21113;-76
2022/11/26 05:13:58;;;;;;;116.65;38.17;;;;;;;2.70;87.60;101747.82;1639851;86;21775;-76
2022/11/26 05:16:43;;;;;;;125.65;38.92;;;;;;;2.70;87.61;101750.78;1637124;85;21117;-75
2022/11/26 05:19:28;;;;;;;117.70;36.05;;;;;;;2.69;87.54;101751.19;1639011;86;21066;-75
2022/11/26 05:22:13;;;;;;;117.47;36.35;;;;;;;2.67;87.54;101755.37;1639355;85;21069;-75
2022/11/26 05:24:58;;;;;;;124.47;39.65;;;;;;;2.68;87.55;101757.52;1643118;86;21543;-76
2022/11/26 05:27:43;;;;;;;118.65;37.40;;;;;;;2.67;87.54;101761.75;1640901;86;21013;-76
2022/11/26 05:30:28;;;;;;;113.75;38.60;;;;;;;2.64;87.47;101762.52;1635750;86;21472;-76
2022/11/26 05:33:14;;;;;;;112.50;37.90;;;;;;;2.62;87.42;101765.84;1644347;86;21529;-76
2022/11/26 05:35:59;;;;;;;104.43;35.98;;;;;;;2.60;87.48;101764.95;1639195;86;20989;-75
2022/11/26 05:38:44;;;;;;;94.50;32.38;;;;;;;2.56;87.44;101761.42;1645104;85;21082;-76
2022/11/26 05:41:29;;;;;;;88.92;33.63;;;;;;;2.53;87.44;101765.14;1642412;86;21574;-76
2022/11/26 05:44:14;;;;;;;87.05;32.93;;;;;;;2.51;87.38;101768.45;1639905;86;21077;-76
2022/11/26 05:46:59;;;;;;;90.90;32.50;;;;;;;2.48;87.37;101776.88;1642108;86;21097;-76
2022/11/26 05:49:44;;;;;;;88.25;33.18;;;;;;;2.46;87.45;101780.19;1639922;86;21113;-76
2022/11/26 05:52:29;;;;;;;73.20;26.70;;;;;;;2.48;87.51;101779.83;1640529;85;20989;-76
2022/11/26 05:55:15;;;;;;;105.75;34.05;;;;;;;2.48;87.54;101784.53;1638404;86;21329;-75
2022/11/26 05:58:01;;;;;;;83.95;31.93;;;;;;;2.50;87.53;101784.59;1638293;86;21503;-76
2022/11/26 06:00:46;;;;;;;82.85;32.73;;;;;;;2.49;87.47;101781.16;1637527;86;21468;-76
2022/11/26 06:03:31;;;;;;;81.30;31.68;;;;;;;2.48;87.51;101790.91;1641656;86;21062;-76
2022/11/26 06:06:16;;;;;;;82.05;31.52;;;;;;;2.48;87.45;101787.48;1638365;86;21053;-76
2022/11/26 06:09:01;;;;;;;82.92;31.60;;;;;;;2.46;87.46;101791.27;1640600;85;21163;-76
2022/11/26 06:11:49;;;;;;;90.35;32.78;;;;;;;2.46;87.45;101799.33;1637572;86;21105;-76
2022/11/26 06:14:34;;;;;;;96.45;33.98;;;;;;;2.45;87.45;101798.45;1644499;86;21047;-76
2022/11/26 06:17:19;;;;;;;101.10;34.78;;;;;;;2.45;87.44;101804.84;1640734;86;21921;-76
2022/11/26 06:20:06;;;;;;;100.15;34.35;;;;;;;2.44;87.41;101804.38;1638953;86;21450;-75
2022/11/26 06:22:50;;;;;;;;;;;;;;;2.43;87.38;101809.43;1645630;85;21652;-75
2022/11/26 06:25:35;;;;;;;101.60;35.38;;;;;;;2.39;87.41;101807.17;1641866;86;20438;-76
2022/11/26 06:28:20;;;;;;;92.60;34.33;;;;;;;2.38;87.45;101824.58;1643927;85;21585;-76
2022/11/26 06:31:07;;;;;;;94.72;32.88;;;;;;;2.39;87.50;101822.48;1641616;86;20907;-76
2022/11/26 06:33:56;;;;;;;89.15;33.05;;;;;;;2.41;87.52;101819.99;1641004;85;20942;-77
2022/11/26 06:36:41;;;;;;;88.72;32.95;;;;;;;2.42;87.50;101831.94;1629378;85;543598;-76
2022/11/26 06:39:26;;;;;;;88.87;33.02;;;;;;;2.41;87.46;101825.97;1626866;86;21392;-77
2022/11/26 06:42:11;;;;;;;84.13;30.72;;;;;;;2.42;87.44;101833.22;1641991;86;21435;-77
2022/11/26 06:44:56;;;;;;;87.15;31.75;;;;;;;2.42;87.48;101839.59;1639391;86;20927;-76
2022/11/26 06:47:41;;;;;;;82.15;30.52;;;;;;;2.42;87.44;101843.02;1640474;86;21027;-77
2022/11/26 06:50:26;;;;;;;84.58;31.45;;;;;;;2.41;87.43;101839.13;1640616;85;20923;-77
2022/11/26 06:53:10;;;;;;;84.32;30.62;;;;;;;2.39;87.45;101847.14;1641855;86;21802;-77
2022/11/26 06:56:06;;;;;;;85.87;31.27;;;;;;;2.40;87.50;101848.47;1614424;87;20985;-77
2022/11/26 06:58:55;;;;;;;79.67;30.17;;;;;;;2.39;87.49;101863.33;1639054;86;20958;-76
2022/11/26 07:01:40;;;;;;;82.42;29.67;;;;;;;2.40;87.52;101875.27;1642017;86;21463;-76
2022/11/26 07:04:25;;;;;;;81.87;30.48;;;;;;;2.37;87.39;101867.91;1645840;85;21006;-77
2022/11/26 07:07:10;;;;;;;87.47;32.30;;;;;;;2.37;87.49;101871.73;1641236;85;20939;-77
2022/11/26 07:09:55;;;;;;;85.77;31.45;;;;;;;2.37;87.55;101871.73;1642837;86;20950;-77
2022/11/26 07:12:40;;;;;;;81.32;30.25;;;;;;;2.39;87.51;101881.59;1644810;86;20943;-76
2022/11/26 07:15:25;;;;;;;80.00;30.55;;;;;;;2.41;87.57;101885.95;1641664;86;21470;-77
2022/11/26 07:18:11;;;;;;;77.40;30.35;;;;;;;2.43;87.53;101888.56;1633389;86;21880;-76
2022/11/26 07:20:56;;;;;;;70.37;28.38;;;;;;;2.43;87.47;101886.01;1643845;85;20983;-77
2022/11/26 07:23:41;;;;;;;81.45;31.75;;;;;;;2.45;87.56;101889.08;1643404;86;20939;-77
2022/11/26 07:26:25;;;;;;;81.85;31.93;;;;;;;2.47;87.53;101893.84;1642426;86;20963;-76
2022/11/26 07:29:11;;;;;;;80.55;30.35;;;;;;;2.45;87.42;101895.87;1639597;86;21006;-77
2022/11/26 07:31:55;;;;;;;78.62;31.30;;;;;;;2.46;87.52;101893.38;1639704;85;21031;-76
2022/11/26 07:34:41;;;;;;;81.67;32.30;;;;;;;2.48;87.49;101901.95;1641495;85;20946;-77
2022/11/26 07:37:26;;;;;;;92.33;34.08;;;;;;;2.47;87.41;101893.84;1642876;86;20967;-77
2022/11/26 07:40:12;;;;;;;90.80;32.65;;;;;;;2.44;87.37;101886.06;1640147;85;21505;-76
2022/11/26 07:42:59;;;;;;;85.60;30.90;;;;;;;2.38;87.31;101892.22;1641348;85;21456;-77
2022/11/26 07:45:44;;;;;;;89.42;31.75;;;;;;;2.37;87.44;101890.47;1650090;85;20973;-77
2022/11/26 07:48:31;;;;;;;86.37;33.28;;;;;;;2.41;87.54;101896.56;1639997;85;21364;-77
2022/11/26 07:51:26;;;;;;;85.25;31.80;;;;;;;2.46;87.67;101906.14;1641923;85;21002;-76
2022/11/26 07:54:11;;;;;;;91.47;33.20;;;;;;;2.50;87.62;101902.89;1632231;85;21537;-74
2022/11/26 07:56:56;;;;;;;93.30;33.80;;;;;;;2.55;87.63;101924.36;1643577;85;20990;-74
2022/11/26 07:59:41;;;;;;;93.25;33.05;;;;;;;2.56;87.56;101927.78;1642775;85;22254;-74
2022/11/26 08:02:26;;;;;;;97.08;33.53;;;;;;;2.59;87.57;101921.52;1635272;85;20970;-74
2022/11/26 08:05:11;;;;;;;87.78;32.28;;;;;;;2.61;87.55;101912.19;1635957;86;21038;-75
2022/11/26 08:07:56;;;;;;;91.37;34.00;;;;;;;2.64;87.60;101911.89;1637875;86;21063;-74
2022/11/26 08:10:41;;;;;;;82.30;29.37;;;;;;;2.70;87.65;101927.85;1636590;86;21053;-74
2022/11/26 08:13:25;;;;;;;77.32;30.35;;;;;;;2.74;87.57;101978.64;1640600;86;20930;-74
2022/11/26 08:16:11;;;;;;;73.83;29.52;;;;;;;2.68;87.42;101954.14;1637114;85;21022;-74
2022/11/26 08:19:00;;;;;;;74.60;30.60;;;;;;;2.68;87.52;101966.52;1642020;85;20990;-74
2022/11/26 08:21:44;;;;;;;69.30;27.87;;;;;;;2.69;87.49;101966.97;1644509;85;21306;-74
2022/11/26 08:24:30;;;;;;;74.17;29.25;;;;;;;2.71;87.56;101972.14;1640853;86;21344;-74
2022/11/26 08:27:14;;;;;;;85.12;31.40;;;;;;;2.70;87.49;101971.27;1640671;86;20963;-74
2022/11/26 08:29:59;;;;;;;93.95;38.75;;;;;;;2.73;87.54;101982.01;1636830;85;20974;-74
2022/11/26 08:32:44;;;;;;;85.22;34.05;;;;;;;2.71;87.49;101974.29;1641377;85;21507;-74
2022/11/26 08:35:29;;;;;;;83.00;35.28;;;;;;;2.69;87.46;101978.47;1641439;85;21422;-73
2022/11/26 08:38:14;;;;;;;102.53;43.80;;;;;;;2.70;87.49;101980.20;1644751;85;21414;-75
2022/11/26 08:41:02;;;;;;;92.62;41.02;;;;;;;2.74;87.60;101987.17;1634755;85;21373;-74
2022/11/26 08:43:47;;;;;;;87.53;37.98;;;;;;;2.78;87.55;101990.30;1631466;86;21253;-74
2022/11/26 08:46:32;;;;;;;75.60;32.05;;;;;;;2.84;87.61;101984.56;1640231;86;20954;-74
2022/11/26 08:49:17;;;;;;;81.53;33.60;;;;;;;2.85;87.56;101979.51;1638159;85;21490;-74
2022/11/26 08:52:02;;;;;;;91.25;35.08;;;;;;;2.87;87.54;101988.09;1639629;86;20974;-74
2022/11/26 08:54:47;;;;;;;88.07;35.35;;;;;;;2.90;87.57;101988.63;1638730;86;20938;-74
2022/11/26 08:57:32;;;;;;;93.33;35.48;;;;;;;2.90;87.50;101988.63;1640234;85;20976;-74
2022/11/26 09:00:18;;;;;;;85.95;34.08;;;;;;;2.92;87.49;101989.55;1641506;86;20966;-73
2022/11/26 09:03:03;;;;;;;84.13;33.48;;;;;;;2.94;87.56;101988.79;1643845;85;21573;-80
2022/11/26 09:05:48;;;;;;;81.80;34.85;;;;;;;2.97;87.55;101988.03;1638109;86;21089;-76
2022/11/26 09:09:20;;;;;;;80.87;35.25;;;;;;;2.97;87.45;101988.03;1640390;85;21975;-76
2022/11/26 09:11:24;;;;;;;81.55;31.90;;;;;;;2.96;87.39;101988.84;1634831;85;21541;-77
2022/11/26 09:14:10;;;;;;;66.87;29.87;;;;;;;2.95;87.41;101999.87;1640361;86;21696;-76
2022/11/26 09:16:57;;;;;;;79.30;36.13;;;;;;;2.93;87.32;101992.56;1637640;86;21538;-76
2022/11/26 09:19:42;;;;;;;82.08;36.77;;;;;;;2.91;87.43;101998.89;1639384;86;21085;-75
2022/11/26 09:22:27;;;;;;;76.42;32.55;;;;;;;2.93;87.50;101996.40;1636258;86;21117;-75
2022/11/26 09:25:12;;;;;;;73.72;30.92;;;;;;;2.98;87.54;102003.83;1629143;86;21074;-75
2022/11/26 09:27:57;;;;;;;71.62;30.50;;;;;;;3.01;87.50;101997.96;1640282;85;21129;-75
2022/11/26 09:30:42;;;;;;;72.80;32.55;;;;;;;3.03;87.48;102003.59;1636913;86;21085;-75
2022/11/26 09:33:29;;;;;;;72.82;31.48;;;;;;;3.07;87.46;102003.30;1642727;85;21585;-75
2022/11/26 09:36:17;;;;;;;71.10;33.70;;;;;;;3.08;87.43;102006.31;1648913;85;20942;-75
2022/11/26 09:39:02;;;;;;;65.37;30.60;;;;;;;3.09;87.45;102005.50;1644831;86;20946;-80
2022/11/26 09:42:09;;;;;;;67.42;32.00;;;;;;;3.11;87.41;102006.02;1639757;85;21352;-78
2022/11/26 09:45:12;;;;;;;71.33;31.45;;;;;;;3.15;87.48;102007.84;1639089;86;21386;-77
2022/11/26 09:47:58;;;;;;;69.67;32.60;;;;;;;3.23;87.54;102016.66;1637805;86;22196;-75
2022/11/26 09:50:45;;;;;;;73.83;33.88;;;;;;;3.28;87.50;102006.20;1637511;86;27198;-81
2022/11/26 09:53:41;;;;;;;78.80;35.80;;;;;;;3.32;87.40;102006.77;1637781;86;21058;-79
2022/11/26 09:56:26;;;;;;;72.05;32.73;;;;;;;3.37;87.43;102006.06;1638859;85;22317;-79
2022/11/26 09:59:18;;;;;;;68.65;33.25;;;;;;;3.45;87.48;102017.44;1637818;86;21105;-79
2022/11/26 10:02:06;;;;;;;70.80;31.57;;;;;;;3.49;87.36;102019.28;1646376;86;21696;-80
2022/11/26 10:04:51;;;;;;;65.62;31.60;;;;;;;3.51;87.38;102021.08;1640693;86;21093;-80
2022/11/26 10:07:47;;;;;;;67.45;29.45;;;;;;;3.52;87.32;102028.34;1638735;86;21024;-81
2022/11/26 10:10:40;;;;;;;66.57;30.85;;;;;;;3.53;87.34;102028.40;1642389;86;21464;-79
2022/11/26 10:13:49;;;;;;;66.07;30.43;;;;;;;3.51;87.24;102029.16;1636732;86;21938;-79
2022/11/26 10:16:48;;;;;;;66.87;30.70;;;;;;;3.52;87.32;102033.05;1621778;86;21077;-79
2022/11/26 10:20:05;;;;;;;70.67;31.12;;;;;;;3.59;87.40;102035.41;1640244;86;21750;-79
2022/11/26 10:23:14;;;;;;;62.60;27.80;;;;;;;3.63;87.43;102030.46;1641472;85;21089;-79
2022/11/26 10:26:32;;;;;;;61.55;28.85;;;;;;;3.69;87.42;102040.00;1642183;85;21782;-79
2022/11/26 10:29:43;;;;;;;59.05;27.60;;;;;;;3.72;87.37;102037.55;1585019;90;21112;-79
2022/11/26 10:32:38;;;;;;;60.58;29.52;;;;;;;3.74;87.34;102035.92;1566915;90;21499;-79
2022/11/26 10:35:26;;;;;;;62.17;29.48;;;;;;;3.78;87.34;102034.34;1583846;89;21578;-79
2022/11/26 10:38:11;;;;;;;57.45;27.67;;;;;;;3.81;87.34;102042.98;1584120;88;21170;-79
2022/11/26 10:40:56;;;;;;;63.30;28.32;;;;;;;3.86;87.37;102041.45;1580811;90;22030;-79
2022/11/26 10:43:41;;;;;;;62.08;30.50;;;;;;;3.91;87.36;102039.93;1583532;90;21097;-79
2022/11/26 10:46:35;;;;;;;59.08;30.00;;;;;;;3.93;87.31;102034.45;1583185;90;21511;-79
2022/11/26 10:49:28;;;;;;;67.00;30.25;;;;;;;3.95;87.28;102044.33;1581784;90;21097;-79
2022/11/26 10:52:26;;;;;;;61.83;28.70;;;;;;;4.01;87.29;102045.36;1585277;88;21145;-79
2022/11/26 10:55:28;;;;;;;58.33;27.60;;;;;;;4.07;87.29;102042.59;1582338;88;21572;-79
2022/11/26 10:58:24;;;;;;;52.27;27.10;;;;;;;4.14;87.31;102044.95;1582783;88;21659;-79
2022/11/26 11:01:12;;;;;;;;;;;;;;;4.15;87.17;102043.72;1640065;86;21077;-79
2022/11/26 11:03:57;;;;;;;58.98;26.82;;;;;;;4.18;87.13;102041.64;1632049;86;20244;-79
2022/11/26 11:06:44;;;;;;;53.73;26.05;;;;;;;4.21;87.21;102039.18;1646444;86;20994;-79
2022/11/26 11:09:34;;;;;;;51.28;25.10;;;;;;;4.24;87.22;102040.56;1637563;86;21496;-79
2022/11/26 11:12:25;;;;;;;51.15;24.77;;;;;;;4.27;87.18;102041.94;1633062;86;21556;-79
2022/11/26 11:15:26;;;;;;;49.35;25.77;;;;;;;4.27;87.12;102033.84;1639140;86;21435;-79
2022/11/26 11:18:17;;;;;;;48.17;25.30;;;;;;;4.33;87.16;102039.58;1634336;86;21151;-79
2022/11/26 11:21:04;;;;;;;49.10;24.90;;;;;;;4.37;87.20;102039.27;1633984;86;21604;-79
2022/11/26 11:23:49;;;;;;;52.13;25.57;;;;;;;4.36;87.01;102048.64;1644198;86;21522;-79
2022/11/26 11:26:42;;;;;;;44.10;23.80;;;;;;;4.37;87.12;102059.34;1643327;86;21092;-79
2022/11/26 11:29:36;;;;;;;42.67;23.95;;;;;;;4.39;87.14;102060.67;1644058;86;21681;-78
2022/11/26 11:32:36;;;;;;;45.83;23.62;;;;;;;4.40;87.14;102058.16;1639708;85;21101;-80
2022/11/26 11:35:26;;;;;;;46.13;23.25;;;;;;;4.47;87.21;102057.55;1640331;86;21112;-79
2022/11/26 11:38:27;;;;;;;48.52;25.23;;;;;;;4.51;87.16;102065.78;1649718;86;21042;-79
2022/11/26 11:41:20;;;;;;;44.40;24.18;;;;;;;4.52;87.07;102064.09;1650506;85;21070;-79
2022/11/26 11:44:19;;;;;;;48.90;25.57;;;;;;;4.48;86.88;102069.94;1639798;86;21085;-79
2022/11/26 11:47:21;;;;;;;44.35;24.82;;;;;;;4.43;86.94;102077.47;1644926;85;21121;-79
2022/11/26 11:50:18;;;;;;;51.40;26.62;;;;;;;4.40;86.92;102081.63;1634462;86;21585;-79
2022/11/26 11:53:06;;;;;;;;;;;;;;;4.37;86.92;102080.23;1637518;86;21065;-79
2022/11/26 11:56:29;;;;;;;45.63;23.47;;;;;;;4.36;86.82;102079.78;1649298;86;20213;-79
2022/11/26 11:59:46;;;;;;;65.45;42.73;;;;;;;4.35;86.93;102084.44;1642174;86;21116;-79
2022/11/26 12:02:33;;;;;;;54.48;27.98;;;;;;;4.30;86.82;102083.01;1655525;85;21057;-79
2022/11/26 12:05:39;;;;;;;50.38;25.35;;;;;;;4.29;86.85;102085.98;1638191;86;21584;-79
2022/11/26 12:08:31;;;;;;;48.52;25.35;;;;;;;4.28;86.86;102083.37;1637024;85;21509;-79
2022/11/26 12:12:01;;;;;;;49.83;26.93;;;;;;;4.30;86.88;102086.44;1645101;86;21126;-79
2022/11/26 12:15:00;;;;;;;48.28;26.00;;;;;;;4.32;86.87;102083.93;1637682;86;21468;-79
2022/11/26 12:18:05;;;;;;;66.25;29.98;;;;;;;4.30;86.80;102089.41;1645467;86;21133;-79
2022/11/26 12:21:12;;;;;;;57.07;26.37;;;;;;;4.31;86.82;102082.19;1650917;86;21389;-79
2022/11/26 12:24:03;;;;;;;51.95;26.23;;;;;;;4.27;86.62;102084.19;1639085;86;21701;-79
2022/11/26 12:26:56;;;;;;;49.40;25.17;;;;;;;4.27;86.73;102090.59;1637393;86;21069;-79
2022/11/26 12:29:55;;;;;;;49.93;24.32;;;;;;;4.26;86.64;102087.56;1642442;85;21125;-79
2022/11/26 12:32:48;;;;;;;51.08;24.43;;;;;;;4.21;86.60;102091.66;1636499;86;21105;-79
2022/11/26 12:35:53;;;;;;;50.67;25.62;;;;;;;4.21;86.61;102091.66;1640398;85;21097;-79
2022/11/26 12:38:52;;;;;;;50.12;24.55;;;;;;;4.21;86.66;102089.97;1671491;83;21450;-79
2022/11/26 12:41:42;;;;;;;50.10;24.43;;;;;;;4.22;86.69;102091.71;1671293;85;21160;-79
2022/11/26 12:44:38;;;;;;;45.78;23.70;;;;;;;4.25;86.67;102101.19;1662866;84;21046;-79
2022/11/26 12:47:40;;;;;;;49.77;24.95;;;;;;;4.24;86.61;102095.20;1655012;86;21100;-80
2022/11/26 12:50:39;;;;;;;47.27;25.00;;;;;;;4.25;86.60;102099.50;1656371;85;21322;-79
2022/11/26 12:53:45;;;;;;;55.60;27.13;;;;;;;4.25;86.57;102093.51;1651464;85;21902;-79
2022/11/26 12:56:53;;;;;;;53.45;25.40;;;;;;;4.26;86.55;102099.95;1654128;86;21080;-79
2022/11/26 12:59:56;;;;;;;57.67;26.68;;;;;;;4.24;86.39;102100.73;1642314;86;21074;-79